Time;durP1;ratioP1;P1;durP2;ratioP2;P2;SDS_P1;SDS_P2;PMS_P1;PMS_P2;Temp;Humidity;BMP_temperature;BMP_pressure;BME280_temperature;BME280_humidity;BME280_pressure;Samples;Min_cycle;Max_cycle;Signal;HPM_P1;HPM_P2
2022/07/23 00:02:21;;;;;;;2.90;1.52;;;17.30;99.90;;;;;;5032064;28;20049;-74
2022/07/23 00:04:47;;;;;;;3.60;1.73;;;17.30;99.90;;;;;;4999003;28;20120;-74
2022/07/23 00:07:12;;;;;;;3.60;1.65;;;17.30;99.90;;;;;;4999391;28;20081;-74
2022/07/23 00:09:38;;;;;;;4.18;1.55;;;17.20;99.90;;;;;;5016260;28;20041;-75
2022/07/23 00:12:04;;;;;;;2.97;1.45;;;17.20;99.90;;;;;;5016189;28;20385;-75
2022/07/23 00:14:30;;;;;;;3.13;1.40;;;17.10;99.90;;;;;;4999077;28;20128;-74
2022/07/23 00:16:55;;;;;;;3.95;1.70;;;17.10;99.90;;;;;;4999037;28;20126;-75
2022/07/23 00:19:21;;;;;;;3.83;1.73;;;17.10;99.90;;;;;;4998770;28;20053;-76
2022/07/23 00:21:47;;;;;;;5.07;1.60;;;17.00;99.90;;;;;;5001700;28;20057;-74
2022/07/23 00:24:12;;;;;;;5.47;1.60;;;17.00;99.90;;;;;;5020005;28;20053;-75
2022/07/23 00:26:38;;;;;;;4.13;1.60;;;17.00;99.90;;;;;;5002746;28;20124;-74
2022/07/23 00:29:04;;;;;;;2.67;1.48;;;17.00;99.90;;;;;;5002439;28;20123;-74
2022/07/23 00:31:29;;;;;;;5.20;1.65;;;17.00;99.90;;;;;;5019968;28;20081;-74
2022/07/23 00:34:00;;;;;;;6.53;1.73;;;17.10;99.90;;;;;;5020130;28;20137;-74
2022/07/23 00:36:27;;;;;;;5.75;1.83;;;17.10;99.90;;;;;;5018744;28;20052;-75
2022/07/23 00:38:53;;;;;;;4.63;1.50;;;17.00;99.90;;;;;;5019492;28;20038;-75
2022/07/23 00:41:19;;;;;;;3.78;1.70;;;17.10;99.90;;;;;;5002222;28;20129;-75
2022/07/23 00:43:45;;;;;;;2.80;1.80;;;17.00;99.90;;;;;;5001860;28;20042;-74
2022/07/23 00:46:11;;;;;;;3.95;2.22;;;17.10;99.90;;;;;;5019913;28;20124;-74
2022/07/23 00:48:36;;;;;;;2.72;1.60;;;17.00;99.90;;;;;;5002090;28;20140;-74
2022/07/23 00:51:02;;;;;;;3.42;1.70;;;17.00;99.90;;;;;;5019558;28;20041;-74
2022/07/23 00:53:28;;;;;;;5.43;1.77;;;16.90;99.90;;;;;;5019339;28;20387;-74
2022/07/23 00:55:55;;;;;;;4.28;2.05;;;16.90;99.90;;;;;;5001942;28;20088;-75
2022/07/23 00:58:20;;;;;;;3.58;1.77;;;16.90;99.90;;;;;;5019402;28;20041;-74
2022/07/23 01:00:46;;;;;;;6.30;2.33;;;16.90;99.90;;;;;;4985361;28;20117;-74
2022/07/23 01:03:12;;;;;;;5.20;1.90;;;16.90;99.90;;;;;;5018226;28;20092;-74
2022/07/23 01:05:38;;;;;;;6.00;2.08;;;16.90;99.90;;;;;;5019003;28;20351;-74
2022/07/23 01:08:05;;;;;;;4.82;2.13;;;16.90;99.90;;;;;;5001682;28;20128;-75
2022/07/23 01:10:31;;;;;;;5.03;2.25;;;16.90;99.90;;;;;;5017784;28;20049;-74
2022/07/23 01:13:03;;;;;;;5.93;2.80;;;16.90;99.90;;;;;;5018286;28;20339;-74
2022/07/23 01:15:29;;;;;;;5.78;2.30;;;16.90;99.90;;;;;;5001752;28;20057;-74
2022/07/23 01:17:55;;;;;;;6.93;2.83;;;16.90;99.90;;;;;;5001611;28;20073;-74
2022/07/23 01:20:21;;;;;;;3.90;2.33;;;16.90;99.90;;;;;;5019102;28;20084;-74
2022/07/23 01:22:47;;;;;;;5.35;2.67;;;17.00;99.90;;;;;;5018969;28;20073;-75
2022/07/23 01:25:13;;;;;;;6.80;2.88;;;17.00;99.90;;;;;;5001620;28;20037;-75
2022/07/23 01:27:39;;;;;;;4.32;2.92;;;17.00;99.90;;;;;;5001358;28;20080;-74
2022/07/23 01:30:06;;;;;;;6.82;2.65;;;16.90;99.90;;;;;;5001343;28;20093;-75
2022/07/23 01:32:32;;;;;;;8.20;2.88;;;16.90;99.90;;;;;;5000768;28;20050;-74
2022/07/23 01:34:57;;;;;;;4.47;2.60;;;16.90;99.90;;;;;;5001106;28;20045;-74
2022/07/23 01:37:23;;;;;;;5.30;2.80;;;16.80;99.90;;;;;;5018384;28;20034;-75
2022/07/23 01:39:49;;;;;;;6.35;2.70;;;16.70;99.90;;;;;;5018787;28;20037;-75
2022/07/23 01:42:14;;;;;;;6.35;2.80;;;16.60;99.90;;;;;;4985043;28;20279;-75
2022/07/23 01:44:40;;;;;;;5.07;3.25;;;16.70;99.90;;;;;;5001368;28;20073;-74
2022/07/23 01:47:06;;;;;;;5.03;2.97;;;16.60;99.90;;;;;;5018520;28;20077;-74
2022/07/23 01:49:31;;;;;;;5.32;2.85;;;16.50;99.90;;;;;;5034096;28;20046;-74
2022/07/23 01:52:00;;;;;;;5.25;3.30;;;16.40;99.90;;;;;;5018294;28;20045;-75
2022/07/23 01:54:30;;;;;;;4.78;2.78;;;16.40;99.90;;;;;;5001396;28;20042;-74
2022/07/23 01:56:56;;;;;;;5.20;3.05;;;16.40;99.90;;;;;;5018473;28;20042;-75
2022/07/23 01:59:22;;;;;;;3.97;2.95;;;16.40;99.90;;;;;;4984843;28;20049;-74
2022/07/23 02:01:50;;;;;;;5.18;3.38;;;16.30;99.90;;;;;;5017877;28;20104;-74
2022/07/23 02:04:16;;;;;;;4.97;3.20;;;16.20;99.90;;;;;;5001021;28;20048;-74
2022/07/23 02:06:44;;;;;;;9.02;3.40;;;16.20;99.90;;;;;;5001222;28;20305;-75
2022/07/23 02:09:10;;;;;;;5.35;3.03;;;16.20;99.90;;;;;;5018174;28;20455;-74
2022/07/23 02:11:36;;;;;;;4.72;2.88;;;16.20;99.90;;;;;;5017947;28;20058;-75
2022/07/23 02:14:02;;;;;;;5.45;3.00;;;16.10;99.90;;;;;;5017560;28;20046;-75
2022/07/23 02:16:28;;;;;;;6.60;3.17;;;16.10;99.90;;;;;;5017861;28;20112;-75
2022/07/23 02:18:53;;;;;;;4.72;3.30;;;16.10;99.90;;;;;;5018071;28;20042;-75
2022/07/23 02:21:19;;;;;;;6.43;3.40;;;16.00;99.90;;;;;;5017795;28;20091;-75
2022/07/23 02:23:45;;;;;;;5.07;3.13;;;16.00;99.90;;;;;;5017874;28;20176;-75
2022/07/23 02:26:10;;;;;;;5.03;3.15;;;16.00;99.90;;;;;;5017380;28;20096;-74
2022/07/23 02:28:36;;;;;;;7.90;3.60;;;16.00;99.90;;;;;;5000104;28;20038;-75
2022/07/23 02:31:02;;;;;;;7.30;3.60;;;15.90;99.90;;;;;;5000783;28;20128;-74
2022/07/23 02:33:27;;;;;;;4.72;3.00;;;15.90;99.90;;;;;;5017833;28;20060;-75
2022/07/23 02:35:53;;;;;;;6.25;3.50;;;15.90;99.90;;;;;;5017422;28;20049;-75
2022/07/23 02:38:19;;;;;;;5.90;3.28;;;15.80;99.90;;;;;;5000410;28;20463;-75
2022/07/23 02:40:44;;;;;;;5.68;2.83;;;15.90;99.90;;;;;;5017838;28;20040;-75
2022/07/23 02:43:10;;;;;;;5.82;3.20;;;15.90;99.90;;;;;;4999699;28;20042;-74
2022/07/23 02:45:36;;;;;;;5.55;3.30;;;15.90;99.90;;;;;;5016682;28;20077;-74
2022/07/23 02:48:01;;;;;;;5.55;3.35;;;15.90;99.90;;;;;;5017073;28;20081;-75
2022/07/23 02:50:27;;;;;;;8.30;3.75;;;15.90;99.90;;;;;;5016822;28;20038;-74
2022/07/23 02:52:53;;;;;;;7.88;4.07;;;15.90;99.90;;;;;;4999973;28;20048;-74
2022/07/23 02:55:18;;;;;;;5.97;3.72;;;16.00;99.90;;;;;;4999796;28;20054;-74
2022/07/23 02:57:44;;;;;;;8.75;3.40;;;16.10;99.90;;;;;;5017287;28;20038;-74
2022/07/23 03:00:10;;;;;;;5.07;3.67;;;16.00;99.90;;;;;;5017133;28;20100;-74
2022/07/23 03:02:36;;;;;;;10.90;3.78;;;16.00;99.90;;;;;;5017673;28;20042;-74
2022/07/23 03:05:02;;;;;;;6.05;3.85;;;16.10;99.90;;;;;;5016975;28;20037;-74
2022/07/23 03:07:27;;;;;;;5.43;3.58;;;16.20;99.90;;;;;;5017147;28;20076;-74
2022/07/23 03:09:53;;;;;;;7.18;3.97;;;16.20;99.90;;;;;;4983397;28;20046;-74
2022/07/23 03:12:19;;;;;;;6.25;4.15;;;16.20;99.90;;;;;;4999437;28;20048;-74
2022/07/23 03:14:44;;;;;;;5.63;4.13;;;16.20;99.90;;;;;;5017105;28;20067;-74
2022/07/23 03:17:10;;;;;;;6.25;3.40;;;16.20;99.90;;;;;;4999544;28;20069;-74
2022/07/23 03:19:37;;;;;;;7.50;4.60;;;16.20;99.90;;;;;;4982799;28;20046;-75
2022/07/23 03:22:03;;;;;;;8.85;4.78;;;16.10;99.90;;;;;;5031843;28;20151;-75
2022/07/23 03:27:13;;;;;;;8.68;4.07;;;16.00;99.90;;;;;;5032252;28;20398;-75
2022/07/23 03:29:38;;;;;;;6.28;4.10;;;15.90;99.90;;;;;;4999373;28;20061;-74
2022/07/23 03:32:04;;;;;;;6.03;4.20;;;15.90;99.90;;;;;;4999357;28;20439;-74
2022/07/23 03:34:30;;;;;;;6.18;4.20;;;15.80;99.90;;;;;;4967054;28;20049;-74
2022/07/23 03:36:56;;;;;;;7.38;4.35;;;15.80;99.90;;;;;;5016591;28;20052;-75
2022/07/23 03:39:21;;;;;;;7.95;4.20;;;15.80;99.90;;;;;;5016661;28;20060;-75
2022/07/23 03:41:47;;;;;;;7.25;4.15;;;15.80;99.90;;;;;;4983291;28;20124;-74
2022/07/23 03:44:12;;;;;;;7.97;4.80;;;15.80;99.90;;;;;;5016278;28;20327;-74
2022/07/23 03:46:38;;;;;;;6.22;4.05;;;15.80;99.90;;;;;;5016435;28;20050;-74
2022/07/23 03:49:04;;;;;;;7.55;4.47;;;15.80;99.90;;;;;;4998800;28;20085;-75
2022/07/23 03:51:29;;;;;;;6.10;4.20;;;15.80;99.90;;;;;;5016350;28;20041;-74
2022/07/23 03:53:55;;;;;;;10.25;4.13;;;15.80;99.90;;;;;;5016267;28;20147;-74
2022/07/23 03:56:21;;;;;;;6.63;4.65;;;15.80;99.90;;;;;;5000929;28;20050;-74
2022/07/23 03:58:47;;;;;;;7.47;4.70;;;15.90;99.90;;;;;;5020148;28;20044;-74
2022/07/23 04:01:13;;;;;;;6.55;4.50;;;16.00;99.90;;;;;;5020006;28;20046;-76
2022/07/23 04:03:39;;;;;;;7.32;4.78;;;16.00;99.90;;;;;;5020327;28;20040;-74
2022/07/23 04:06:06;;;;;;;6.50;4.88;;;16.10;99.90;;;;;;5020364;28;20092;-74
2022/07/23 04:08:31;;;;;;;10.55;4.65;;;16.10;99.90;;;;;;5002955;28;20046;-74
2022/07/23 04:10:57;;;;;;;7.63;4.80;;;16.00;99.90;;;;;;5020259;28;20087;-74
2022/07/23 04:13:23;;;;;;;8.02;4.50;;;16.10;99.90;;;;;;5019952;28;20042;-74
2022/07/23 04:15:50;;;;;;;6.93;4.55;;;16.20;99.90;;;;;;5002628;28;20042;-75
2022/07/23 04:18:17;;;;;;;8.38;4.88;;;16.20;99.90;;;;;;5020282;28;20081;-74
2022/07/23 04:20:46;;;;;;;9.35;4.88;;;16.20;99.90;;;;;;5020174;28;20065;-74
2022/07/23 04:23:12;;;;;;;8.10;4.50;;;16.20;99.90;;;;;;5002836;28;20331;-74
2022/07/23 04:25:38;;;;;;;5.72;4.22;;;16.30;99.90;;;;;;5035588;28;20056;-74
2022/07/23 04:28:04;;;;;;;7.00;4.15;;;16.30;99.90;;;;;;5019738;28;20044;-74
2022/07/23 04:30:30;;;;;;;7.90;3.45;;;16.40;99.90;;;;;;5019381;28;20320;-75
2022/07/23 04:32:55;;;;;;;6.57;3.65;;;16.40;99.90;;;;;;5019614;28;20061;-74
2022/07/23 04:35:21;;;;;;;8.43;4.32;;;16.40;99.90;;;;;;5002384;28;20124;-74
2022/07/23 04:37:47;;;;;;;7.30;4.07;;;16.50;99.90;;;;;;5002201;28;20401;-75
2022/07/23 04:40:13;;;;;;;7.88;4.20;;;16.60;99.90;;;;;;5002248;28;20133;-75
2022/07/23 04:42:39;;;;;;;7.15;4.00;;;16.70;99.90;;;;;;5001484;28;20073;-74
2022/07/23 04:45:06;;;;;;;10.55;3.72;;;16.70;99.90;;;;;;5019317;28;20084;-74
2022/07/23 04:47:31;;;;;;;10.93;4.32;;;16.70;99.90;;;;;;5019590;28;20050;-74
2022/07/23 04:49:57;;;;;;;8.90;4.65;;;16.70;99.90;;;;;;5019277;28;20045;-75
2022/07/23 04:52:24;;;;;;;10.32;4.40;;;16.60;99.90;;;;;;5002249;28;20054;-74
2022/07/23 04:54:49;;;;;;;17.75;4.45;;;16.50;99.90;;;;;;5019084;28;20052;-74
2022/07/23 04:57:15;;;;;;;10.27;4.78;;;16.60;99.90;;;;;;5018981;28;20112;-75
2022/07/23 04:59:41;;;;;;;7.45;4.30;;;16.70;99.90;;;;;;5001460;28;20049;-75
2022/07/23 05:02:07;;;;;;;8.68;3.88;;;16.70;99.90;;;;;;5019033;28;20034;-75
2022/07/23 05:04:33;;;;;;;11.57;4.72;;;16.70;99.90;;;;;;5019152;28;20121;-74
2022/07/23 05:06:59;;;;;;;8.57;4.05;;;16.70;99.90;;;;;;5000541;28;20042;-74
2022/07/23 05:09:25;;;;;;;7.13;3.90;;;16.80;99.90;;;;;;5001818;28;20049;-74
2022/07/23 05:11:50;;;;;;;7.05;4.38;;;16.80;99.90;;;;;;5001410;28;20084;-75
2022/07/23 05:14:16;;;;;;;6.05;3.58;;;16.80;99.90;;;;;;5001008;28;20048;-75
2022/07/23 05:16:42;;;;;;;10.07;4.13;;;16.80;99.90;;;;;;5018750;28;20080;-75
2022/07/23 05:19:08;;;;;;;8.55;4.10;;;16.90;99.90;;;;;;5018954;28;20179;-75
2022/07/23 05:21:33;;;;;;;6.75;3.20;;;16.90;99.90;;;;;;5018883;28;20423;-75
2022/07/23 05:23:59;;;;;;;7.18;3.95;;;17.00;99.90;;;;;;4985432;28;20042;-75
2022/07/23 05:26:25;;;;;;;8.68;4.40;;;17.00;99.90;;;;;;5018896;28;20117;-75
2022/07/23 05:28:51;;;;;;;8.60;4.40;;;17.10;99.90;;;;;;4998535;28;20069;-75
2022/07/23 05:31:17;;;;;;;10.52;3.95;;;17.00;99.90;;;;;;4998228;28;20487;-75
2022/07/23 05:33:43;;;;;;;7.72;3.33;;;16.90;99.90;;;;;;4999345;28;20050;-75
2022/07/23 05:36:09;;;;;;;7.97;3.60;;;16.90;99.90;;;;;;4999163;28;20042;-74
2022/07/23 05:38:35;;;;;;;5.55;3.90;;;17.00;99.90;;;;;;4998177;28;20277;-75
2022/07/23 05:41:01;;;;;;;6.53;3.60;;;16.90;99.90;;;;;;4999070;28;20035;-75
2022/07/23 05:43:27;;;;;;;9.77;3.95;;;17.10;99.90;;;;;;4998525;28;20042;-75
2022/07/23 05:45:53;;;;;;;7.90;3.47;;;17.00;99.90;;;;;;4998985;28;20416;-74
2022/07/23 05:48:19;;;;;;;6.90;3.50;;;16.90;99.90;;;;;;5014511;28;20061;-75
2022/07/23 05:50:46;;;;;;;6.55;3.33;;;17.00;99.90;;;;;;4998288;28;20042;-74
2022/07/23 05:53:12;;;;;;;7.15;3.20;;;16.90;99.90;;;;;;4998788;28;20046;-75
2022/07/23 05:55:37;;;;;;;9.02;3.40;;;17.10;99.90;;;;;;4997843;28;20042;-74
2022/07/23 05:58:03;;;;;;;5.43;3.00;;;17.30;99.90;;;;;;4998941;28;20046;-75
2022/07/23 06:00:29;;;;;;;4.30;2.60;;;17.50;99.90;;;;;;4997379;28;20116;-75
2022/07/23 06:02:55;;;;;;;8.07;2.72;;;17.60;99.90;;;;;;5029971;28;20077;-75
2022/07/23 06:05:20;;;;;;;5.35;2.13;;;17.60;99.90;;;;;;5013516;28;20081;-75
2022/07/23 06:07:46;;;;;;;4.20;2.70;;;17.60;99.90;;;;;;4998417;28;20057;-75
2022/07/23 06:10:12;;;;;;;5.75;2.08;;;17.70;99.90;;;;;;4998462;28;20326;-75
2022/07/23 06:12:37;;;;;;;5.40;2.00;;;17.60;99.90;;;;;;4997591;28;20471;-76
2022/07/23 06:15:04;;;;;;;7.22;1.80;;;17.60;99.90;;;;;;4997822;28;20050;-75
2022/07/23 06:17:30;;;;;;;4.90;1.90;;;17.70;99.90;;;;;;4998532;28;20074;-75
2022/07/23 06:19:55;;;;;;;4.60;1.73;;;17.70;99.90;;;;;;4997061;28;20105;-75
2022/07/23 06:22:22;;;;;;;4.25;1.60;;;17.80;99.90;;;;;;4998290;28;20046;-75
2022/07/23 06:24:48;;;;;;;5.70;1.50;;;17.80;99.90;;;;;;4998559;28;20046;-75
2022/07/23 06:27:14;;;;;;;3.92;1.75;;;17.80;99.90;;;;;;4998085;28;20074;-75
2022/07/23 06:29:40;;;;;;;4.40;1.38;;;17.90;99.90;;;;;;5008206;28;20093;-75
2022/07/23 06:32:07;;;;;;;3.03;1.60;;;17.80;99.90;;;;;;5000653;28;20046;-74
2022/07/23 06:34:33;;;;;;;2.90;1.30;;;17.90;99.90;;;;;;5033000;28;20099;-75
2022/07/23 06:36:59;;;;;;;3.33;1.20;;;18.00;99.90;;;;;;5017354;28;20045;-75
2022/07/23 06:39:25;;;;;;;4.03;1.50;;;17.90;99.90;;;;;;5017376;28;20042;-75
2022/07/23 06:41:50;;;;;;;2.58;1.10;;;18.00;99.90;;;;;;5017267;28;20044;-75
2022/07/23 06:44:16;;;;;;;8.50;1.40;;;18.00;99.90;;;;;;5017271;28;20088;-74
2022/07/23 06:46:42;;;;;;;2.47;1.45;;;18.00;99.90;;;;;;5017504;28;20049;-75
2022/07/23 06:49:08;;;;;;;3.60;1.30;;;18.10;99.90;;;;;;5000255;28;20076;-75
2022/07/23 06:51:34;;;;;;;4.00;1.40;;;18.20;99.90;;;;;;5017637;28;20097;-75
2022/07/23 06:54:00;;;;;;;5.85;1.77;;;18.10;99.90;;;;;;5017263;28;20038;-75
2022/07/23 06:56:25;;;;;;;6.50;1.77;;;18.10;99.90;;;;;;5017297;28;20331;-75
2022/07/23 06:58:51;;;;;;;4.13;2.00;;;18.20;99.90;;;;;;4999897;28;20130;-75
2022/07/23 07:01:17;;;;;;;5.53;1.80;;;18.20;99.90;;;;;;4999351;28;20114;-74
2022/07/23 07:03:42;;;;;;;2.38;1.55;;;18.20;99.90;;;;;;4999671;28;20045;-75
2022/07/23 07:06:08;;;;;;;4.15;1.58;;;18.40;99.90;;;;;;4999475;28;20061;-75
2022/07/23 07:08:34;;;;;;;2.40;1.88;;;18.40;99.90;;;;;;5016900;28;20041;-75
2022/07/23 07:10:59;;;;;;;5.85;1.90;;;18.40;99.90;;;;;;4999281;28;20042;-75
2022/07/23 07:13:25;;;;;;;3.13;1.77;;;18.50;99.90;;;;;;4982765;28;20124;-75
2022/07/23 07:15:51;;;;;;;3.78;1.92;;;18.60;99.90;;;;;;4999268;28;20121;-75
2022/07/23 07:18:16;;;;;;;4.38;1.55;;;18.60;99.90;;;;;;4999435;28;20149;-75
2022/07/23 07:20:42;;;;;;;4.10;1.55;;;18.80;99.90;;;;;;4999390;28;20107;-75
2022/07/23 07:23:08;;;;;;;6.50;1.33;;;18.90;99.90;;;;;;5016627;28;20116;-75
2022/07/23 07:25:33;;;;;;;6.25;1.13;;;19.00;99.90;;;;;;4999380;28;20121;-75
2022/07/23 07:27:59;;;;;;;2.53;1.10;;;19.20;99.90;;;;;;5016834;28;20053;-75
2022/07/23 07:30:25;;;;;;;2.28;0.65;;;19.00;99.90;;;;;;5016179;28;20054;-75
2022/07/23 07:32:50;;;;;;;1.38;0.50;;;19.30;99.90;;;;;;5032173;28;20050;-75
2022/07/23 07:35:16;;;;;;;4.65;0.73;;;19.60;99.90;;;;;;4999487;28;20104;-75
2022/07/23 07:37:42;;;;;;;1.58;0.68;;;19.70;99.90;;;;;;5016681;28;20370;-75
2022/07/23 07:40:08;;;;;;;3.65;0.60;;;19.50;99.90;;;;;;4999486;28;20030;-75
2022/07/23 07:42:34;;;;;;;3.92;0.75;;;19.60;99.90;;;;;;5016214;28;20053;-75
2022/07/23 07:45:00;;;;;;;1.85;0.50;;;19.70;99.90;;;;;;5016542;28;20045;-75
2022/07/23 07:47:25;;;;;;;0.75;0.38;;;19.50;99.90;;;;;;4983246;28;20419;-75
2022/07/23 07:49:51;;;;;;;1.55;0.30;;;19.30;99.90;;;;;;5016262;28;20112;-75
2022/07/23 07:52:17;;;;;;;0.95;0.40;;;19.30;99.90;;;;;;5016310;28;20038;-74
2022/07/23 07:54:43;;;;;;;1.45;0.40;;;19.20;99.90;;;;;;5016129;28;20034;-74
2022/07/23 07:57:09;;;;;;;1.45;0.35;;;19.20;99.90;;;;;;5031797;28;20045;-75
2022/07/23 07:59:35;;;;;;;2.65;0.30;;;19.20;99.90;;;;;;5016410;28;20049;-74
2022/07/23 08:02:01;;;;;;;0.77;0.40;;;19.30;99.90;;;;;;4982493;28;20085;-74
2022/07/23 08:04:26;;;;;;;0.57;0.50;;;19.50;99.90;;;;;;5016363;28;20084;-75
2022/07/23 08:06:52;;;;;;;0.95;0.20;;;19.60;99.90;;;;;;4998838;28;20046;-75
2022/07/23 08:09:18;;;;;;;0.63;0.30;;;19.70;99.90;;;;;;5016438;28;20088;-74
2022/07/23 08:11:43;;;;;;;4.25;0.32;;;19.80;99.90;;;;;;4999097;28;20045;-75
2022/07/23 08:14:10;;;;;;;0.40;0.30;;;19.90;99.90;;;;;;5016204;28;20044;-74
2022/07/23 08:16:36;;;;;;;1.73;0.40;;;19.90;99.90;;;;;;5016341;28;20046;-75
2022/07/23 08:19:02;;;;;;;2.67;0.30;;;19.90;99.90;;;;;;5016283;28;20053;-75
2022/07/23 08:21:28;;;;;;;1.95;0.20;;;19.80;99.90;;;;;;4999373;28;20044;-74
2022/07/23 08:23:53;;;;;;;2.75;0.40;;;19.90;99.90;;;;;;4999291;28;20069;-74
2022/07/23 08:26:19;;;;;;;1.80;0.43;;;19.90;99.90;;;;;;4998854;28;20050;-75
2022/07/23 08:28:44;;;;;;;1.55;0.38;;;20.00;99.90;;;;;;5016119;28;20058;-74
2022/07/23 08:31:11;;;;;;;1.00;0.30;;;20.20;99.90;;;;;;4998889;28;20042;-74
2022/07/23 08:33:37;;;;;;;5.55;0.50;;;20.40;99.90;;;;;;5016220;28;20202;-74
2022/07/23 08:36:03;;;;;;;1.75;0.38;;;20.50;99.90;;;;;;4998758;28;20136;-74
2022/07/23 08:38:29;;;;;;;3.05;0.40;;;20.60;99.90;;;;;;4998665;28;20049;-74
2022/07/23 08:40:58;;;;;;;2.33;0.43;;;20.80;99.90;;;;;;4998923;28;20033;-74
2022/07/23 08:43:26;;;;;;;2.35;0.52;;;21.00;99.90;;;;;;5019544;28;20382;-74
2022/07/23 08:45:56;;;;;;;1.38;0.50;;;21.10;99.90;;;;;;5019927;28;20042;-74
2022/07/23 08:48:23;;;;;;;1.50;0.32;;;21.30;99.90;;;;;;5019694;28;20418;-75
2022/07/23 08:50:54;;;;;;;3.50;0.50;;;21.30;99.90;;;;;;5019797;28;20049;-74
2022/07/23 08:53:22;;;;;;;1.33;0.50;;;20.90;99.90;;;;;;5019699;28;20033;-74
2022/07/23 08:55:52;;;;;;;1.67;0.40;;;20.80;99.90;;;;;;5019598;28;20047;-74
2022/07/23 08:58:19;;;;;;;2.08;0.55;;;20.70;99.90;;;;;;5019689;28;20108;-74
2022/07/23 09:00:45;;;;;;;0.85;0.30;;;20.50;99.90;;;;;;5002249;28;20046;-74
2022/07/23 09:03:20;;;;;;;1.63;0.30;;;20.40;99.90;;;;;;5019250;28;20115;-74
2022/07/23 09:05:46;;;;;;;2.92;0.40;;;20.40;99.90;;;;;;5019541;28;20042;-75
2022/07/23 09:08:13;;;;;;;2.60;0.43;;;20.40;99.90;;;;;;5019192;28;20426;-74
2022/07/23 09:10:46;;;;;;;2.78;0.45;;;20.50;99.90;;;;;;5019423;28;20057;-74
2022/07/23 09:13:33;;;;;;;3.55;0.40;;;20.70;99.90;;;;;;5018879;28;20046;-74
2022/07/23 09:16:23;;;;;;;3.35;0.40;;;20.80;99.90;;;;;;5001740;28;20327;-74
2022/07/23 09:18:50;;;;;;;2.15;0.40;;;21.00;99.90;;;;;;5019263;28;20120;-74
2022/07/23 09:21:25;;;;;;;1.92;0.32;;;21.10;99.90;;;;;;5001685;28;20045;-74
2022/07/23 09:24:08;;;;;;;2.15;0.50;;;21.20;99.90;;;;;;5019058;28;20042;-74
2022/07/23 09:26:39;;;;;;;3.35;0.60;;;21.20;99.90;;;;;;5018956;28;20423;-74
2022/07/23 09:29:27;;;;;;;3.25;0.55;;;21.20;99.90;;;;;;5018433;28;20065;-74
2022/07/23 09:32:10;;;;;;;2.33;0.47;;;21.00;99.90;;;;;;5019151;28;20316;-74
2022/07/23 09:34:40;;;;;;;3.45;0.45;;;21.20;99.90;;;;;;5018843;28;20042;-74
2022/07/23 09:37:17;;;;;;;3.20;0.55;;;21.20;99.90;;;;;;5018607;28;20164;-74
2022/07/23 09:39:44;;;;;;;3.33;0.50;;;20.90;99.90;;;;;;5019021;28;20045;-74
2022/07/23 09:42:13;;;;;;;2.65;0.40;;;20.90;99.90;;;;;;5018785;28;20096;-74
2022/07/23 09:44:46;;;;;;;2.95;0.50;;;20.90;99.90;;;;;;5018199;28;20084;-74
2022/07/23 09:47:13;;;;;;;3.55;0.60;;;21.00;99.90;;;;;;5018625;28;20312;-74
2022/07/23 09:49:39;;;;;;;1.75;0.40;;;21.20;99.90;;;;;;5018558;28;20046;-74
2022/07/23 09:52:05;;;;;;;2.50;0.50;;;21.20;99.90;;;;;;5018372;28;20037;-74
2022/07/23 09:54:35;;;;;;;1.08;0.55;;;21.20;99.90;;;;;;5017972;28;20034;-74
2022/07/23 09:57:02;;;;;;;1.48;0.47;;;21.10;99.90;;;;;;5018720;28;20042;-74
2022/07/23 09:59:30;;;;;;;2.15;0.47;;;21.20;99.90;;;;;;5018354;28;20041;-74
2022/07/23 10:01:59;;;;;;;2.42;0.70;;;21.20;99.90;;;;;;5033775;28;20041;-74
2022/07/23 10:04:27;;;;;;;3.35;0.60;;;21.30;99.90;;;;;;5018213;28;20427;-74
2022/07/23 10:06:55;;;;;;;2.75;0.50;;;21.20;99.90;;;;;;5018203;28;20057;-74
2022/07/23 10:09:29;;;;;;;2.10;0.63;;;21.10;99.90;;;;;;5018164;28;20038;-74
2022/07/23 10:12:08;;;;;;;4.40;1.25;;;21.10;99.90;;;;;;4984586;28;20053;-75
2022/07/23 10:14:34;;;;;;;4.65;0.63;;;21.20;99.90;;;;;;5017694;28;20423;-75
2022/07/23 10:17:03;;;;;;;2.67;0.50;;;21.40;99.90;;;;;;5017829;28;20042;-74
2022/07/23 10:19:30;;;;;;;1.77;0.60;;;21.30;99.90;;;;;;5018236;28;20044;-74
2022/07/23 10:22:01;;;;;;;2.28;0.60;;;21.30;99.90;;;;;;5017955;28;20108;-74
2022/07/23 10:24:53;;;;;;;3.72;0.75;;;21.20;99.90;;;;;;5017961;28;20092;-74
2022/07/23 10:27:42;;;;;;;2.33;0.70;;;21.20;99.90;;;;;;5000508;28;20045;-74
2022/07/23 10:30:10;;;;;;;2.65;0.60;;;21.20;99.90;;;;;;5017822;28;20100;-74
2022/07/23 10:32:44;;;;;;;1.85;0.70;;;21.30;99.90;;;;;;5018019;28;20053;-74
2022/07/23 10:35:31;;;;;;;1.63;0.40;;;21.40;99.90;;;;;;5000175;28;20041;-74
2022/07/23 10:38:21;;;;;;;3.72;0.65;;;21.50;99.90;;;;;;5017569;28;20060;-75
2022/07/23 10:41:02;;;;;;;4.25;0.70;;;21.60;99.90;;;;;;5000463;28;20442;-74
2022/07/23 10:43:28;;;;;;;3.40;0.80;;;21.40;99.90;;;;;;4999757;28;20052;-74
2022/07/23 10:45:55;;;;;;;2.63;0.70;;;21.10;99.90;;;;;;5000260;28;20125;-74
2022/07/23 10:48:22;;;;;;;4.15;0.60;;;21.10;99.90;;;;;;5017472;28;20042;-74
2022/07/23 10:51:07;;;;;;;1.27;0.50;;;21.20;99.90;;;;;;5017665;28;20126;-75
2022/07/23 10:53:51;;;;;;;2.97;0.75;;;21.30;99.90;;;;;;5017639;28;20049;-74
2022/07/23 10:56:37;;;;;;;3.60;0.40;;;21.30;99.90;;;;;;5000125;28;20038;-74
2022/07/23 10:59:04;;;;;;;2.67;0.70;;;21.30;99.90;;;;;;5003617;28;20077;-74
2022/07/23 11:01:37;;;;;;;3.53;0.50;;;21.20;99.90;;;;;;5017188;28;20389;-74
2022/07/23 11:04:06;;;;;;;3.78;0.38;;;21.00;99.90;;;;;;4999932;28;20038;-75
2022/07/23 11:06:50;;;;;;;4.88;0.60;;;20.90;99.90;;;;;;4998924;28;20052;-74
2022/07/23 11:09:54;;;;;;;3.90;0.50;;;20.90;99.90;;;;;;5017053;28;20132;-74
2022/07/23 11:12:29;;;;;;;5.35;0.60;;;20.90;99.90;;;;;;4983140;28;20089;-74
2022/07/23 11:15:12;;;;;;;1.05;0.40;;;20.70;99.90;;;;;;5016550;28;20046;-74
2022/07/23 11:17:45;;;;;;;2.35;0.43;;;20.80;99.90;;;;;;4999943;28;20034;-74
2022/07/23 11:20:11;;;;;;;1.27;0.70;;;20.70;99.90;;;;;;5017276;28;20045;-74
2022/07/23 11:22:42;;;;;;;0.82;0.50;;;20.80;99.90;;;;;;5016836;28;20427;-74
2022/07/23 11:25:09;;;;;;;1.42;0.40;;;20.80;99.90;;;;;;4999695;28;20045;-74
2022/07/23 11:27:43;;;;;;;5.55;0.50;;;20.80;99.90;;;;;;5016653;28;20046;-74
2022/07/23 11:30:30;;;;;;;2.00;0.65;;;20.80;99.90;;;;;;5015948;28;20061;-74
2022/07/23 11:32:55;;;;;;;;;;;20.90;99.90;;;;;;4999892;28;20050;-74
2022/07/23 11:35:22;;;;;;;4.63;0.70;;;20.70;99.90;;;;;;5032343;28;19922;-74
2022/07/23 11:37:48;;;;;;;3.35;0.60;;;20.70;99.90;;;;;;5016783;28;20118;-74
2022/07/23 11:40:16;;;;;;;3.22;1.00;;;20.70;99.90;;;;;;5016572;28;20083;-74
2022/07/23 11:42:54;;;;;;;2.83;0.73;;;20.70;99.90;;;;;;4999036;28;20128;-75
2022/07/23 11:45:21;;;;;;;2.22;0.80;;;20.60;99.90;;;;;;4999235;28;20342;-74
2022/07/23 11:47:47;;;;;;;2.30;0.90;;;20.90;99.90;;;;;;5016811;28;20045;-74
2022/07/23 11:50:12;;;;;;;2.17;0.77;;;21.10;99.90;;;;;;5016618;28;20424;-74
2022/07/23 11:52:39;;;;;;;3.35;0.70;;;21.20;99.90;;;;;;5016457;28;20152;-74
2022/07/23 11:55:08;;;;;;;4.47;1.00;;;21.20;99.90;;;;;;5016381;28;20030;-74
2022/07/23 11:57:39;;;;;;;2.10;0.50;;;21.50;99.90;;;;;;5016686;28;20046;-74
2022/07/23 12:00:10;;;;;;;2.78;0.80;;;21.50;99.90;;;;;;5016762;28;20056;-74
2022/07/23 12:02:37;;;;;;;2.92;0.90;;;21.60;99.90;;;;;;5016629;28;20380;-74
2022/07/23 12:05:04;;;;;;;5.00;1.23;;;21.70;99.90;;;;;;5016471;28;20034;-74
2022/07/23 12:07:37;;;;;;;4.85;0.93;;;21.80;99.90;;;;;;5016279;28;20057;-74
2022/07/23 12:10:14;;;;;;;2.90;1.10;;;21.90;99.90;;;;;;5016756;28;20045;-74
2022/07/23 12:12:46;;;;;;;5.47;0.80;;;22.10;99.90;;;;;;5016408;28;20449;-74
2022/07/23 12:15:14;;;;;;;2.65;0.70;;;22.40;99.90;;;;;;5016269;28;20125;-74
2022/07/23 12:17:42;;;;;;;3.08;0.70;;;23.00;99.90;;;;;;5018989;28;20113;-74
2022/07/23 12:20:11;;;;;;;1.92;0.80;;;23.40;99.90;;;;;;5020433;28;20129;-74
2022/07/23 12:22:48;;;;;;;3.10;0.80;;;23.30;99.90;;;;;;5020156;28;20419;-74
2022/07/23 12:25:19;;;;;;;4.03;0.80;;;23.00;99.90;;;;;;5020171;28;20034;-74
2022/07/23 12:27:57;;;;;;;3.92;1.00;;;23.00;99.90;;;;;;5020005;28;20042;-75
2022/07/23 12:30:25;;;;;;;2.78;0.70;;;23.10;99.90;;;;;;5002425;28;20108;-74
2022/07/23 12:32:54;;;;;;;2.05;0.80;;;23.10;99.90;;;;;;5002546;28;20050;-74
2022/07/23 12:35:20;;;;;;;2.35;0.90;;;23.30;99.90;;;;;;5002593;28;20045;-74
2022/07/23 12:37:48;;;;;;;1.85;0.68;;;23.50;99.90;;;;;;4986464;28;20038;-74
2022/07/23 12:40:27;;;;;;;2.55;0.70;;;23.70;99.90;;;;;;5019938;28;20057;-74
2022/07/23 12:43:21;;;;;;;1.77;0.80;;;23.70;99.90;;;;;;5019342;28;20038;-75
2022/07/23 12:46:02;;;;;;;5.28;1.00;;;24.20;99.90;;;;;;5015721;28;20065;-74
2022/07/23 12:48:36;;;;;;;2.15;0.80;;;24.10;99.90;;;;;;5019983;28;20034;-74
2022/07/23 12:51:06;;;;;;;3.63;1.20;;;23.70;99.90;;;;;;5002090;28;20149;-75
2022/07/23 12:53:43;;;;;;;1.40;0.70;;;23.70;99.90;;;;;;5019688;28;20099;-74